Time,TemperatureF,DewpointF,PressureIn,WindDirection,WindDirectionDegrees,WindSpeedMPH,WindSpeedGustMPH,Humidity,HourlyPrecipIn,Conditions,Clouds,dailyrainin,SoftwareType,DateUTC
2013-02-01 00:02:00,4.8,-11.4,31.86,North,0,0.0,0.0,46,0.00,,,-99.99,VWS V12.07,2013-02-01 06:02:00,
2013-02-01 00:07:00,4.8,-11.4,31.86,North,0,0.0,0.0,46,0.00,,,-99.99,VWS V12.07,2013-02-01 06:07:00,
2013-02-01 00:12:00,4.5,-11.7,31.86,North,0,0.0,0.0,46,0.00,,,-99.99,VWS V12.07,2013-02-01 06:12:00,
2013-02-01 00:17:00,4.5,-11.7,31.86,North,0,0.0,0.0,46,0.00,,,-99.99,VWS V12.07,2013-02-01 06:17:00,
2013-02-01 00:22:00,4.5,-11.7,31.86,North,0,0.0,0.0,46,0.00,,,-99.99,VWS V12.07,2013-02-01 06:22:00,
2013-02-01 00:27:00,4.5,-11.7,31.86,North,0,0.0,0.0,46,0.00,,,-99.99,VWS V12.07,2013-02-01 06:27:00,
2013-02-01 00:32:00,4.3,-11.9,31.86,North,0,0.0,0.0,46,0.00,,,-99.99,VWS V12.07,2013-02-01 06:32:00,
2013-02-01 00:37:00,4.3,-11.9,31.86,North,0,0.0,0.0,46,0.00,,,-99.99,VWS V12.07,2013-02-01 06:37:00,
2013-02-01 00:42:00,4.3,-11.9,31.86,North,0,0.0,0.0,46,0.00,,,-99.99,VWS V12.07,2013-02-01 06:42:00,
2013-02-01 00:47:00,4.1,-12.1,31.86,North,0,0.0,0.0,46,0.00,,,-99.99,VWS V12.07,2013-02-01 06:47:00,
2013-02-01 00:52:00,4.1,-12.1,31.86,North,0,0.0,0.0,46,0.00,,,-99.99,VWS V12.07,2013-02-01 06:52:00,
2013-02-01 00:57:00,4.1,-12.1,31.86,North,0,0.0,0.0,46,0.00,,,-99.99,VWS V12.07,2013-02-01 06:57:00,
2013-02-01 01:02:00,3.9,-12.2,31.86,North,0,0.0,0.0,46,0.00,,,-99.99,VWS V12.07,2013-02-01 07:02:00,
2013-02-01 01:07:00,3.7,-12.4,31.86,North,0,0.0,0.0,46,0.00,,,-99.99,VWS V12.07,2013-02-01 07:07:00,
2013-02-01 01:12:00,3.7,-12.4,31.86,North,0,0.0,0.0,46,0.00,,,-99.99,VWS V12.07,2013-02-01 07:12:00,
2013-02-01 01:17:00,3.7,-12.4,31.86,North,0,0.0,0.0,46,0.00,,,-99.99,VWS V12.07,2013-02-01 07:17:00,
2013-02-01 01:27:00,3.7,-12.4,31.86,North,0,0.0,0.0,46,0.00,,,-99.99,VWS V12.07,2013-02-01 07:27:00,
2013-02-01 01:32:00,3.7,-12.4,31.86,North,0,0.0,0.0,46,0.00,,,-99.99,VWS V12.07,2013-02-01 07:32:00,
2013-02-01 01:37:00,3.7,-12.4,31.86,North,0,0.0,0.0,46,0.00,,,-99.99,VWS V12.07,2013-02-01 07:37:00,
2013-02-01 01:42:00,3.6,-12.6,31.86,North,0,0.0,0.0,46,0.00,,,-99.99,VWS V12.07,2013-02-01 07:42:00,
2013-02-01 01:47:00,3.4,-12.7,31.86,North,0,0.0,0.0,46,0.00,,,-99.99,VWS V12.07,2013-02-01 07:47:00,
2013-02-01 01:52:00,3.6,-12.6,31.86,North,0,0.0,0.0,46,0.00,,,-99.99,VWS V12.07,2013-02-01 07:52:00,
2013-02-01 01:57:00,3.4,-12.7,31.86,North,0,0.0,0.0,46,0.00,,,-99.99,VWS V12.07,2013-02-01 07:57:00,
2013-02-01 02:02:00,3.2,-12.9,31.86,North,0,0.0,0.0,46,0.00,,,-99.99,VWS V12.07,2013-02-01 08:02:00,
2013-02-01 02:07:00,3.2,-12.9,31.86,North,0,0.0,0.0,46,0.00,,,-99.99,VWS V12.07,2013-02-01 08:07:00,
2013-02-01 02:17:00,3.2,-12.9,31.86,North,0,0.0,0.0,46,0.00,,,-99.99,VWS V12.07,2013-02-01 08:17:00,
2013-02-01 02:22:00,3.4,-12.7,31.86,North,0,0.0,0.0,46,0.00,,,-99.99,VWS V12.07,2013-02-01 08:22:00,
2013-02-01 02:27:00,3.4,-12.7,31.86,North,0,0.0,0.0,46,0.00,,,-99.99,VWS V12.07,2013-02-01 08:27:00,
2013-02-01 02:32:00,3.2,-12.9,31.86,North,0,0.0,0.0,46,0.00,,,-99.99,VWS V12.07,2013-02-01 08:32:00,
2013-02-01 02:37:00,3.2,-12.9,31.86,North,0,0.0,0.0,46,0.00,,,-99.99,VWS V12.07,2013-02-01 08:37:00,
2013-02-01 02:42:00,3.4,-12.7,31.86,North,0,0.0,0.0,46,0.00,,,-99.99,VWS V12.07,2013-02-01 08:42:00,
2013-02-01 02:47:00,3.2,-12.9,31.86,North,0,0.0,0.0,46,0.00,,,-99.99,VWS V12.07,2013-02-01 08:47:00,
2013-02-01 02:52:00,3.2,-12.9,31.86,North,0,0.0,0.0,46,0.00,,,-99.99,VWS V12.07,2013-02-01 08:52:00,
2013-02-01 03:02:00,3.2,-12.9,31.86,North,0,0.0,0.0,46,0.00,,,-99.99,VWS V12.07,2013-02-01 09:02:00,
2013-02-01 03:07:00,3.2,-12.9,31.86,North,0,0.0,0.0,46,0.00,,,-99.99,VWS V12.07,2013-02-01 09:07:00,
2013-02-01 03:12:00,3.2,-12.9,31.86,North,0,0.0,0.0,46,0.00,,,-99.99,VWS V12.07,2013-02-01 09:12:00,
2013-02-01 03:22:00,3.2,-12.9,31.86,North,0,0.0,0.0,46,0.00,,,-99.99,VWS V12.07,2013-02-01 09:22:00,
2013-02-01 03:27:00,3.2,-12.9,31.86,North,0,0.0,0.0,46,0.00,,,-99.99,VWS V12.07,2013-02-01 09:27:00,
2013-02-01 03:32:00,2.8,-13.2,31.86,North,0,0.0,0.0,46,0.00,,,-99.99,VWS V12.07,2013-02-01 09:32:00,
2013-02-01 03:37:00,2.8,-13.2,31.86,North,0,0.0,0.0,46,0.00,,,-99.99,VWS V12.07,2013-02-01 09:37:00,
2013-02-01 03:42:00,2.8,-13.2,31.86,North,0,0.0,0.0,46,0.00,,,-99.99,VWS V12.07,2013-02-01 09:42:00,
2013-02-01 03:47:00,2.7,-13.4,31.86,North,0,0.0,0.0,46,0.00,,,-99.99,VWS V12.07,2013-02-01 09:47:00,
2013-02-01 03:52:00,2.7,-13.4,31.86,North,0,0.0,0.0,46,0.00,,,-99.99,VWS V12.07,2013-02-01 09:52:00,
2013-02-01 03:57:00,2.7,-13.4,31.86,North,0,0.0,0.0,46,0.00,,,-99.99,VWS V12.07,2013-02-01 09:57:00,
2013-02-01 04:07:00,2.5,-13.6,31.86,North,0,0.0,0.0,46,0.00,,,-99.99,VWS V12.07,2013-02-01 10:07:00,
2013-02-01 04:12:00,2.3,-13.7,31.86,North,0,0.0,0.0,46,0.00,,,-99.99,VWS V12.07,2013-02-01 10:12:00,
2013-02-01 04:17:00,2.1,-13.9,31.86,North,0,0.0,0.0,46,0.00,,,-99.99,VWS V12.07,2013-02-01 10:17:00,
2013-02-01 04:22:00,2.1,-13.9,31.86,North,0,0.0,0.0,46,0.00,,,-99.99,VWS V12.07,2013-02-01 10:22:00,
2013-02-01 04:27:00,1.9,-14.1,31.86,North,0,0.0,0.0,46,0.00,,,-99.99,VWS V12.07,2013-02-01 10:27:00,
2013-02-01 04:32:00,1.9,-14.1,31.86,North,0,0.0,0.0,46,0.00,,,-99.99,VWS V12.07,2013-02-01 10:32:00,
2013-02-01 04:37:00,1.8,-14.2,31.86,North,0,0.0,0.0,46,0.00,,,-99.99,VWS V12.07,2013-02-01 10:37:00,
2013-02-01 04:42:00,1.8,-14.2,31.86,North,0,0.0,0.0,46,0.00,,,-99.99,VWS V12.07,2013-02-01 10:42:00,
2013-02-01 04:47:00,1.6,-14.4,31.86,North,0,0.0,0.0,46,0.00,,,-99.99,VWS V12.07,2013-02-01 10:47:00,
2013-02-01 04:52:00,1.6,-14.4,31.86,North,0,0.0,0.0,46,0.00,,,-99.99,VWS V12.07,2013-02-01 10:52:00,
2013-02-01 04:57:00,1.6,-14.4,31.86,North,0,0.0,0.0,46,0.00,,,-99.99,VWS V12.07,2013-02-01 10:57:00,
2013-02-01 05:02:00,1.6,-14.4,31.86,North,0,0.0,0.0,46,0.00,,,-99.99,VWS V12.07,2013-02-01 11:02:00,
2013-02-01 05:07:00,1.6,-14.4,31.86,North,0,0.0,0.0,46,0.00,,,-99.99,VWS V12.07,2013-02-01 11:07:00,
2013-02-01 05:12:00,1.6,-14.4,31.86,North,0,0.0,0.0,46,0.00,,,-99.99,VWS V12.07,2013-02-01 11:12:00,
2013-02-01 05:17:00,1.4,-14.6,31.86,North,0,0.0,0.0,46,0.00,,,-99.99,VWS V12.07,2013-02-01 11:17:00,
2013-02-01 05:22:00,1.4,-14.6,31.86,North,0,0.0,0.0,46,0.00,,,-99.99,VWS V12.07,2013-02-01 11:22:00,
2013-02-01 05:27:00,1.2,-14.7,31.86,North,0,0.0,0.0,46,0.00,,,-99.99,VWS V12.07,2013-02-01 11:27:00,
2013-02-01 05:32:00,1.2,-14.7,31.86,North,0,0.0,0.0,46,0.00,,,-99.99,VWS V12.07,2013-02-01 11:32:00,
2013-02-01 05:37:00,1.2,-14.7,31.86,North,0,0.0,0.0,46,0.00,,,-99.99,VWS V12.07,2013-02-01 11:37:00,
2013-02-01 05:42:00,1.2,-14.7,31.86,North,0,0.0,0.0,46,0.00,,,-99.99,VWS V12.07,2013-02-01 11:42:00,
2013-02-01 05:47:00,1.2,-14.7,31.86,North,0,0.0,0.0,46,0.00,,,-99.99,VWS V12.07,2013-02-01 11:47:00,
2013-02-01 05:52:00,1.2,-14.7,31.86,North,0,0.0,0.0,46,0.00,,,-99.99,VWS V12.07,2013-02-01 11:52:00,
2013-02-01 05:57:00,1.0,-14.9,31.86,North,0,0.0,0.0,46,0.00,,,-99.99,VWS V12.07,2013-02-01 11:57:00,
2013-02-01 06:07:00,0.7,-15.2,31.86,North,0,0.0,0.0,46,0.00,,,-99.99,VWS V12.07,2013-02-01 12:07:00,
2013-02-01 06:12:00,0.7,-15.2,31.86,North,0,0.0,0.0,46,0.00,,,-99.99,VWS V12.07,2013-02-01 12:12:00,
2013-02-01 06:17:00,0.9,-15.1,31.86,North,0,0.0,0.0,46,0.00,,,-99.99,VWS V12.07,2013-02-01 12:17:00,
2013-02-01 06:22:00,0.9,-15.1,31.86,North,0,0.0,0.0,46,0.00,,,-99.99,VWS V12.07,2013-02-01 12:22:00,
2013-02-01 06:27:00,0.7,-15.2,31.86,North,0,0.0,0.0,46,0.00,,,-99.99,VWS V12.07,2013-02-01 12:27:00,
2013-02-01 06:32:00,0.7,-15.2,31.86,North,0,0.0,0.0,46,0.00,,,-99.99,VWS V12.07,2013-02-01 12:32:00,
2013-02-01 06:37:00,0.7,-15.2,31.86,North,0,0.0,0.0,46,0.00,,,-99.99,VWS V12.07,2013-02-01 12:37:00,
2013-02-01 06:42:00,0.7,-15.2,31.86,North,0,0.0,0.0,46,0.00,,,-99.99,VWS V12.07,2013-02-01 12:42:00,
2013-02-01 06:47:00,0.5,-15.4,31.86,North,0,0.0,0.0,46,0.00,,,-99.99,VWS V12.07,2013-02-01 12:47:00,
2013-02-01 06:52:00,0.3,-15.6,31.86,North,0,0.0,0.0,46,0.00,,,-99.99,VWS V12.07,2013-02-01 12:52:00,
2013-02-01 06:57:00,0.3,-15.6,31.86,North,0,0.0,0.0,46,0.00,,,-99.99,VWS V12.07,2013-02-01 12:57:00,
2013-02-01 07:07:00,0.0,-15.9,31.86,North,0,0.0,0.0,46,0.00,,,-99.99,VWS V12.07,2013-02-01 13:07:00,
2013-02-01 07:12:00,0.0,-15.9,31.86,North,0,0.0,0.0,46,0.00,,,-99.99,VWS V12.07,2013-02-01 13:12:00,
2013-02-01 07:17:00,0.1,-15.7,31.86,North,0,0.0,0.0,46,0.00,,,-99.99,VWS V12.07,2013-02-01 13:17:00,
2013-02-01 07:22:00,0.1,-15.7,31.86,North,0,0.0,0.0,46,0.00,,,-99.99,VWS V12.07,2013-02-01 13:22:00,
2013-02-01 07:27:00,0.1,-15.7,31.86,North,0,0.0,0.0,46,0.00,,,-99.99,VWS V12.07,2013-02-01 13:27:00,
2013-02-01 07:32:00,0.0,-15.9,31.86,North,0,0.0,0.0,46,0.00,,,-99.99,VWS V12.07,2013-02-01 13:32:00,
2013-02-01 07:37:00,0.1,-15.7,31.86,North,0,0.0,0.0,46,0.00,,,-99.99,VWS V12.07,2013-02-01 13:37:00,
2013-02-01 07:42:00,0.0,-15.9,31.86,North,0,0.0,0.0,46,0.00,,,-99.99,VWS V12.07,2013-02-01 13:42:00,
2013-02-01 07:47:00,0.0,-15.9,31.86,North,0,0.0,0.0,46,0.00,,,-99.99,VWS V12.07,2013-02-01 13:47:00,
2013-02-01 07:52:00,0.0,-15.9,31.86,North,0,0.0,0.0,46,0.00,,,-99.99,VWS V12.07,2013-02-01 13:52:00,
2013-02-01 07:57:00,0.0,-15.9,31.86,North,0,0.0,0.0,46,0.00,,,-99.99,VWS V12.07,2013-02-01 13:57:00,
2013-02-01 08:02:00,0.0,-15.9,31.86,North,0,0.0,0.0,46,0.00,,,-99.99,VWS V12.07,2013-02-01 14:02:00,
2013-02-01 08:07:00,0.1,-15.7,31.86,North,0,0.0,0.0,46,0.00,,,-99.99,VWS V12.07,2013-02-01 14:07:00,
2013-02-01 08:12:00,0.1,-15.7,31.86,North,0,0.0,0.0,46,0.00,,,-99.99,VWS V12.07,2013-02-01 14:12:00,
2013-02-01 08:17:00,0.1,-15.7,31.86,North,0,0.0,0.0,46,0.00,,,-99.99,VWS V12.07,2013-02-01 14:17:00,
2013-02-01 08:22:00,0.3,-15.6,31.86,North,0,0.0,0.0,46,0.00,,,-99.99,VWS V12.07,2013-02-01 14:22:00,
2013-02-01 08:27:00,0.1,-15.7,31.86,North,0,0.0,0.0,46,0.00,,,-99.99,VWS V12.07,2013-02-01 14:27:00,
2013-02-01 08:32:00,0.3,-15.6,31.86,North,0,0.0,0.0,46,0.00,,,-99.99,VWS V12.07,2013-02-01 14:32:00,
2013-02-01 08:37:00,0.3,-15.6,31.86,North,0,0.0,0.0,46,0.00,,,-99.99,VWS V12.07,2013-02-01 14:37:00,
2013-02-01 08:42:00,0.3,-15.6,31.86,North,0,0.0,0.0,46,0.00,,,-99.99,VWS V12.07,2013-02-01 14:42:00,
2013-02-01 08:47:00,0.3,-15.6,31.86,North,0,0.0,0.0,46,0.00,,,-99.99,VWS V12.07,2013-02-01 14:47:00,
2013-02-01 08:52:00,0.5,-15.4,31.86,North,0,0.0,0.0,46,0.00,,,-99.99,VWS V12.07,2013-02-01 14:52:00,
2013-02-01 08:57:00,0.7,-15.2,31.86,North,0,0.0,0.0,46,0.00,,,-99.99,VWS V12.07,2013-02-01 14:57:00,
2013-02-01 09:02:00,1.0,-14.9,31.86,North,0,0.0,0.0,46,0.00,,,-99.99,VWS V12.07,2013-02-01 15:02:00,
2013-02-01 09:07:00,1.2,-14.7,31.86,North,0,0.0,0.0,46,0.00,,,-99.99,VWS V12.07,2013-02-01 15:07:00,
2013-02-01 09:12:00,1.2,-14.7,31.86,North,0,0.0,0.0,46,0.00,,,-99.99,VWS V12.07,2013-02-01 15:12:00,
2013-02-01 09:17:00,1.4,-14.6,31.86,North,0,0.0,0.0,46,0.00,,,-99.99,VWS V12.07,2013-02-01 15:17:00,
2013-02-01 09:22:00,1.8,-14.2,31.86,North,0,0.0,0.0,46,0.00,,,-99.99,VWS V12.07,2013-02-01 15:22:00,
2013-02-01 09:27:00,1.6,-14.4,31.86,North,0,0.0,0.0,46,0.00,,,-99.99,VWS V12.07,2013-02-01 15:27:00,
2013-02-01 09:32:00,1.8,-14.2,31.86,North,0,0.0,0.0,46,0.00,,,-99.99,VWS V12.07,2013-02-01 15:32:00,
2013-02-01 09:37:00,1.9,-14.1,31.86,North,0,0.0,0.0,46,0.00,,,-99.99,VWS V12.07,2013-02-01 15:37:00,
2013-02-01 09:42:00,1.9,-14.1,31.86,North,0,0.0,0.0,46,0.00,,,-99.99,VWS V12.07,2013-02-01 15:42:00,
2013-02-01 09:47:00,2.5,-13.6,31.86,North,0,0.0,0.0,46,0.00,,,-99.99,VWS V12.07,2013-02-01 15:47:00,
2013-02-01 09:52:00,2.5,-13.6,31.86,North,0,0.0,0.0,46,0.00,,,-99.99,VWS V12.07,2013-02-01 15:52:00,
2013-02-01 09:57:00,2.5,-13.6,31.86,North,0,0.0,0.0,46,0.00,,,-99.99,VWS V12.07,2013-02-01 15:57:00,
2013-02-01 10:02:00,2.5,-13.6,31.86,North,0,0.0,0.0,46,0.00,,,-99.99,VWS V12.07,2013-02-01 16:02:00,
2013-02-01 10:07:00,2.7,-13.4,31.86,North,0,0.0,0.0,46,0.00,,,-99.99,VWS V12.07,2013-02-01 16:07:00,
2013-02-01 10:12:00,2.7,-13.4,31.86,North,0,0.0,0.0,46,0.00,,,-99.99,VWS V12.07,2013-02-01 16:12:00,
2013-02-01 10:17:00,2.8,-13.2,31.86,North,0,0.0,0.0,46,0.00,,,-99.99,VWS V12.07,2013-02-01 16:17:00,
2013-02-01 10:22:00,2.8,-13.2,31.86,North,0,0.0,0.0,46,0.00,,,-99.99,VWS V12.07,2013-02-01 16:22:00,
2013-02-01 10:27:00,2.8,-13.2,31.86,North,0,0.0,0.0,46,0.00,,,-99.99,VWS V12.07,2013-02-01 16:27:00,
2013-02-01 10:37:00,3.6,-12.6,31.86,North,0,0.0,0.0,46,0.00,,,-99.99,VWS V12.07,2013-02-01 16:37:00,
2013-02-01 10:42:00,3.7,-12.4,31.86,North,0,0.0,0.0,46,0.00,,,-99.99,VWS V12.07,2013-02-01 16:42:00,
2013-02-01 10:47:00,4.1,-12.1,31.86,North,0,0.0,0.0,46,0.00,,,-99.99,VWS V12.07,2013-02-01 16:47:00,
2013-02-01 10:52:00,4.5,-11.7,31.86,North,0,0.0,0.0,46,0.00,,,-99.99,VWS V12.07,2013-02-01 16:52:00,
2013-02-01 10:57:00,4.8,-11.4,31.86,North,0,0.0,0.0,46,0.00,,,-99.99,VWS V12.07,2013-02-01 16:57:00,
2013-02-01 11:07:00,4.8,-11.4,31.86,North,0,0.0,0.0,46,0.00,,,-99.99,VWS V12.07,2013-02-01 17:07:00,
2013-02-01 11:12:00,5.0,-11.2,31.86,North,0,0.0,0.0,46,0.00,,,-99.99,VWS V12.07,2013-02-01 17:12:00,
2013-02-01 11:17:00,5.2,-11.1,31.86,North,0,0.0,0.0,46,0.00,,,-99.99,VWS V12.07,2013-02-01 17:17:00,
2013-02-01 11:22:00,5.4,-10.9,31.86,North,0,0.0,0.0,46,0.00,,,-99.99,VWS V12.07,2013-02-01 17:22:00,
2013-02-01 11:27:00,5.5,-10.8,31.86,North,0,0.0,0.0,46,0.00,,,-99.99,VWS V12.07,2013-02-01 17:27:00,
2013-02-01 11:32:00,5.7,-10.6,31.86,North,0,0.0,0.0,46,0.00,,,-99.99,VWS V12.07,2013-02-01 17:32:00,
2013-02-01 11:37:00,5.9,-10.4,31.86,North,0,0.0,0.0,46,0.00,,,-99.99,VWS V12.07,2013-02-01 17:37:00,
2013-02-01 11:42:00,5.9,-10.4,31.86,North,0,0.0,0.0,46,0.00,,,-99.99,VWS V12.07,2013-02-01 17:42:00,
2013-02-01 11:47:00,5.9,-10.4,31.86,North,0,0.0,0.0,46,0.00,,,-99.99,VWS V12.07,2013-02-01 17:47:00,
2013-02-01 11:52:00,6.1,-10.2,31.86,North,0,0.0,0.0,46,0.00,,,-99.99,VWS V12.07,2013-02-01 17:52:00,
2013-02-01 11:57:00,6.3,-10.1,31.86,North,0,0.0,0.0,46,0.00,,,-99.99,VWS V12.07,2013-02-01 17:57:00,
2013-02-01 12:02:00,6.4,-9.9,31.86,North,0,0.0,0.0,46,0.00,,,-99.99,VWS V12.07,2013-02-01 18:02:00,
2013-02-01 12:07:00,6.4,-9.9,31.86,North,0,0.0,0.0,46,0.00,,,-99.99,VWS V12.07,2013-02-01 18:07:00,
2013-02-01 12:12:00,6.4,-9.9,31.86,North,0,0.0,0.0,46,0.00,,,-99.99,VWS V12.07,2013-02-01 18:12:00,
2013-02-01 12:17:00,6.8,-9.6,31.86,North,0,0.0,0.0,46,0.00,,,-99.99,VWS V12.07,2013-02-01 18:17:00,
2013-02-01 12:22:00,6.8,-9.6,31.86,North,0,0.0,0.0,46,0.00,,,-99.99,VWS V12.07,2013-02-01 18:22:00,
2013-02-01 12:27:00,6.4,-9.9,31.86,North,0,0.0,0.0,46,0.00,,,-99.99,VWS V12.07,2013-02-01 18:27:00,
2013-02-01 12:32:00,6.3,-10.1,31.86,North,0,0.0,0.0,46,0.00,,,-99.99,VWS V12.07,2013-02-01 18:32:00,
2013-02-01 12:37:00,6.3,-10.1,31.86,North,0,0.0,0.0,46,0.00,,,-99.99,VWS V12.07,2013-02-01 18:37:00,
2013-02-01 12:42:00,6.3,-10.1,31.86,North,0,0.0,0.0,46,0.00,,,-99.99,VWS V12.07,2013-02-01 18:42:00,
2013-02-01 12:47:00,6.3,-10.1,31.86,North,0,0.0,0.0,46,0.00,,,-99.99,VWS V12.07,2013-02-01 18:47:00,
2013-02-01 12:52:00,6.3,-10.1,31.86,North,0,0.0,0.0,46,0.00,,,-99.99,VWS V12.07,2013-02-01 18:52:00,
2013-02-01 13:02:00,6.1,-10.2,31.86,North,0,0.0,0.0,46,0.00,,,-99.99,VWS V12.07,2013-02-01 19:02:00,
2013-02-01 13:07:00,6.3,-10.1,31.86,North,0,0.0,0.0,46,0.00,,,-99.99,VWS V12.07,2013-02-01 19:07:00,
2013-02-01 13:12:00,6.4,-9.9,31.86,North,0,0.0,0.0,46,0.00,,,-99.99,VWS V12.07,2013-02-01 19:12:00,
2013-02-01 13:17:00,6.4,-9.9,31.86,North,0,0.0,0.0,46,0.00,,,-99.99,VWS V12.07,2013-02-01 19:17:00,
2013-02-01 13:22:00,6.6,-9.8,31.86,North,0,0.0,0.0,46,0.00,,,-99.99,VWS V12.07,2013-02-01 19:22:00,
2013-02-01 13:27:00,6.8,-9.6,31.86,North,0,0.0,0.0,46,0.00,,,-99.99,VWS V12.07,2013-02-01 19:27:00,
2013-02-01 13:32:00,6.8,-9.6,31.86,North,0,0.0,0.0,46,0.00,,,-99.99,VWS V12.07,2013-02-01 19:32:00,
2013-02-01 13:37:00,6.8,-9.6,31.86,North,0,0.0,0.0,46,0.00,,,-99.99,VWS V12.07,2013-02-01 19:37:00,
2013-02-01 13:42:00,6.8,-9.6,31.86,North,0,0.0,0.0,46,0.00,,,-99.99,VWS V12.07,2013-02-01 19:42:00,
2013-02-01 13:47:00,7.0,-9.4,31.86,North,0,0.0,0.0,46,0.00,,,-99.99,VWS V12.07,2013-02-01 19:47:00,
2013-02-01 13:52:00,7.2,-9.3,31.86,North,0,0.0,0.0,46,0.00,,,-99.99,VWS V12.07,2013-02-01 19:52:00,
2013-02-01 13:57:00,7.0,-9.4,31.86,North,0,0.0,0.0,46,0.00,,,-99.99,VWS V12.07,2013-02-01 19:57:00,
2013-02-01 14:02:00,6.8,-9.6,31.86,North,0,0.0,0.0,46,0.00,,,-99.99,VWS V12.07,2013-02-01 20:02:00,
2013-02-01 14:07:00,6.8,-9.6,31.86,North,0,0.0,0.0,46,0.00,,,-99.99,VWS V12.07,2013-02-01 20:07:00,
2013-02-01 14:12:00,7.0,-9.4,31.86,North,0,0.0,0.0,46,0.00,,,-99.99,VWS V12.07,2013-02-01 20:12:00,
2013-02-01 14:17:00,7.0,-9.4,31.86,North,0,0.0,0.0,46,0.00,,,-99.99,VWS V12.07,2013-02-01 20:17:00,
2013-02-01 14:27:00,7.2,-9.3,31.86,North,0,0.0,0.0,46,0.00,,,-99.99,VWS V12.07,2013-02-01 20:27:00,
2013-02-01 14:32:00,7.0,-9.4,31.86,North,0,0.0,0.0,46,0.00,,,-99.99,VWS V12.07,2013-02-01 20:32:00,
2013-02-01 14:37:00,7.0,-9.4,31.86,North,0,0.0,0.0,46,0.00,,,-99.99,VWS V12.07,2013-02-01 20:37:00,
2013-02-01 14:42:00,7.0,-9.4,31.86,North,0,0.0,0.0,46,0.00,,,-99.99,VWS V12.07,2013-02-01 20:42:00,
2013-02-01 14:52:00,7.2,-9.3,31.86,North,0,0.0,0.0,46,0.00,,,-99.99,VWS V12.07,2013-02-01 20:52:00,
2013-02-01 14:57:00,7.2,-9.3,31.86,North,0,0.0,0.0,46,0.00,,,-99.99,VWS V12.07,2013-02-01 20:57:00,
2013-02-01 15:02:00,7.2,-9.3,31.86,North,0,0.0,0.0,46,0.00,,,-99.99,VWS V12.07,2013-02-01 21:02:00,
2013-02-01 15:07:00,7.2,-9.3,31.86,North,0,0.0,0.0,46,0.00,,,-99.99,VWS V12.07,2013-02-01 21:07:00,
2013-02-01 15:12:00,7.0,-9.4,31.86,North,0,0.0,0.0,46,0.00,,,-99.99,VWS V12.07,2013-02-01 21:12:00,
2013-02-01 15:17:00,6.8,-9.6,31.86,North,0,0.0,0.0,46,0.00,,,-99.99,VWS V12.07,2013-02-01 21:17:00,
2013-02-01 15:22:00,6.8,-9.6,31.86,North,0,0.0,0.0,46,0.00,,,-99.99,VWS V12.07,2013-02-01 21:22:00,
2013-02-01 15:27:00,6.8,-9.6,31.86,North,0,0.0,0.0,46,0.00,,,-99.99,VWS V12.07,2013-02-01 21:27:00,
2013-02-01 15:32:00,6.4,-9.9,31.86,North,0,0.0,0.0,46,0.00,,,-99.99,VWS V12.07,2013-02-01 21:32:00,
2013-02-01 15:37:00,6.4,-9.9,31.86,North,0,0.0,0.0,46,0.00,,,-99.99,VWS V12.07,2013-02-01 21:37:00,
2013-02-01 15:42:00,6.4,-9.9,31.86,North,0,0.0,0.0,46,0.00,,,-99.99,VWS V12.07,2013-02-01 21:42:00,
2013-02-01 15:47:00,6.4,-9.9,31.86,North,0,0.0,0.0,46,0.00,,,-99.99,VWS V12.07,2013-02-01 21:47:00,
2013-02-01 15:52:00,6.3,-10.1,31.86,North,0,0.0,0.0,46,0.00,,,-99.99,VWS V12.07,2013-02-01 21:52:00,
2013-02-01 15:57:00,6.1,-10.2,31.86,North,0,0.0,0.0,46,0.00,,,-99.99,VWS V12.07,2013-02-01 21:57:00,
2013-02-01 16:07:00,5.9,-10.4,31.86,North,0,0.0,0.0,46,0.00,,,-99.99,VWS V12.07,2013-02-01 22:07:00,
2013-02-01 16:12:00,5.9,-10.4,31.86,North,0,0.0,0.0,46,0.00,,,-99.99,VWS V12.07,2013-02-01 22:12:00,
2013-02-01 16:17:00,5.9,-10.4,31.86,North,0,0.0,0.0,46,0.00,,,-99.99,VWS V12.07,2013-02-01 22:17:00,
2013-02-01 16:22:00,5.9,-10.4,31.86,North,0,0.0,0.0,46,0.00,,,-99.99,VWS V12.07,2013-02-01 22:22:00,
2013-02-01 16:27:00,5.7,-10.6,31.86,North,0,0.0,0.0,46,0.00,,,-99.99,VWS V12.07,2013-02-01 22:27:00,
2013-02-01 16:32:00,5.7,-10.6,31.86,North,0,0.0,0.0,46,0.00,,,-99.99,VWS V12.07,2013-02-01 22:32:00,
2013-02-01 16:37:00,5.7,-10.6,31.86,North,0,0.0,0.0,46,0.00,,,-99.99,VWS V12.07,2013-02-01 22:37:00,
2013-02-01 16:42:00,5.7,-10.6,31.86,North,0,0.0,0.0,46,0.00,,,-99.99,VWS V12.07,2013-02-01 22:42:00,
2013-02-01 16:47:00,5.9,-10.4,31.86,North,0,0.0,0.0,46,0.00,,,-99.99,VWS V12.07,2013-02-01 22:47:00,
2013-02-01 16:52:00,5.9,-10.4,31.86,North,0,0.0,0.0,46,0.00,,,-99.99,VWS V12.07,2013-02-01 22:52:00,
2013-02-01 16:57:00,5.9,-10.4,31.86,North,0,0.0,0.0,46,0.00,,,-99.99,VWS V12.07,2013-02-01 22:57:00,
2013-02-01 17:02:00,5.7,-10.6,31.86,North,0,0.0,0.0,46,0.00,,,-99.99,VWS V12.07,2013-02-01 23:02:00,
2013-02-01 17:07:00,5.7,-10.6,31.86,North,0,0.0,0.0,46,0.00,,,-99.99,VWS V12.07,2013-02-01 23:07:00,
2013-02-01 17:12:00,5.7,-10.6,31.86,North,0,0.0,0.0,46,0.00,,,-99.99,VWS V12.07,2013-02-01 23:12:00,
2013-02-01 17:17:00,5.7,-10.6,31.86,North,0,0.0,0.0,46,0.00,,,-99.99,VWS V12.07,2013-02-01 23:17:00,
2013-02-01 17:22:00,5.9,-10.4,31.86,North,0,0.0,0.0,46,0.00,,,-99.99,VWS V12.07,2013-02-01 23:22:00,
2013-02-01 17:27:00,5.9,-10.4,31.86,North,0,0.0,0.0,46,0.00,,,-99.99,VWS V12.07,2013-02-01 23:27:00,
2013-02-01 17:32:00,5.9,-10.4,31.86,North,0,0.0,0.0,46,0.00,,,-99.99,VWS V12.07,2013-02-01 23:32:00,
2013-02-01 17:37:00,5.9,-10.4,31.86,North,0,0.0,0.0,46,0.00,,,-99.99,VWS V12.07,2013-02-01 23:37:00,
2013-02-01 17:42:00,5.7,-10.6,31.86,North,0,0.0,0.0,46,0.00,,,-99.99,VWS V12.07,2013-02-01 23:42:00,
2013-02-01 17:47:00,5.7,-10.6,31.86,North,0,0.0,0.0,46,0.00,,,-99.99,VWS V12.07,2013-02-01 23:47:00,
2013-02-01 17:52:00,5.9,-10.4,31.86,North,0,0.0,0.0,46,0.00,,,-99.99,VWS V12.07,2013-02-01 23:52:00,
2013-02-01 17:57:00,5.9,-10.4,31.86,North,0,0.0,0.0,46,0.00,,,-99.99,VWS V12.07,2013-02-01 23:57:00,
2013-02-01 18:02:00,5.9,-10.4,31.86,North,0,0.0,0.0,46,0.00,,,-99.99,VWS V12.07,2013-02-02 00:02:00,
2013-02-01 18:07:00,5.9,-10.4,31.86,North,0,0.0,0.0,46,0.00,,,-99.99,VWS V12.07,2013-02-02 00:07:00,
2013-02-01 18:12:00,5.9,-10.4,31.86,North,0,0.0,0.0,46,0.00,,,-99.99,VWS V12.07,2013-02-02 00:12:00,
2013-02-01 18:17:00,5.9,-10.4,31.86,North,0,0.0,0.0,46,0.00,,,-99.99,VWS V12.07,2013-02-02 00:17:00,
2013-02-01 18:22:00,6.1,-10.2,31.86,North,0,0.0,0.0,46,0.00,,,-99.99,VWS V12.07,2013-02-02 00:22:00,
2013-02-01 18:27:00,6.1,-10.2,31.86,North,0,0.0,0.0,46,0.00,,,-99.99,VWS V12.07,2013-02-02 00:27:00,
2013-02-01 18:32:00,6.3,-10.1,31.86,North,0,0.0,0.0,46,0.00,,,-99.99,VWS V12.07,2013-02-02 00:32:00,
2013-02-01 18:37:00,6.4,-9.9,31.86,North,0,0.0,0.0,46,0.00,,,-99.99,VWS V12.07,2013-02-02 00:37:00,
2013-02-01 18:42:00,6.8,-9.6,31.86,North,0,0.0,0.0,46,0.00,,,-99.99,VWS V12.07,2013-02-02 00:42:00,
2013-02-01 18:47:00,7.0,-9.4,31.86,North,0,0.0,0.0,46,0.00,,,-99.99,VWS V12.07,2013-02-02 00:47:00,
2013-02-01 18:52:00,7.0,-9.4,31.86,North,0,0.0,0.0,46,0.00,,,-99.99,VWS V12.07,2013-02-02 00:52:00,
2013-02-01 18:57:00,7.0,-9.4,31.86,North,0,0.0,0.0,46,0.00,,,-99.99,VWS V12.07,2013-02-02 00:57:00,
2013-02-01 19:02:00,7.2,-9.3,31.86,North,0,0.0,0.0,46,0.00,,,-99.99,VWS V12.07,2013-02-02 01:02:00,
2013-02-01 19:07:00,7.2,-9.3,31.86,North,0,0.0,0.0,46,0.00,,,-99.99,VWS V12.07,2013-02-02 01:07:00,
2013-02-01 19:12:00,7.5,-8.9,31.86,North,0,0.0,0.0,46,0.00,,,-99.99,VWS V12.07,2013-02-02 01:12:00,
2013-02-01 19:17:00,7.3,-9.1,31.86,North,0,0.0,0.0,46,0.00,,,-99.99,VWS V12.07,2013-02-02 01:17:00,
2013-02-01 19:22:00,7.3,-9.1,31.86,North,0,0.0,0.0,46,0.00,,,-99.99,VWS V12.07,2013-02-02 01:22:00,
2013-02-01 19:27:00,7.3,-9.1,31.86,North,0,0.0,0.0,46,0.00,,,-99.99,VWS V12.07,2013-02-02 01:27:00,
2013-02-01 19:32:00,7.5,-8.9,31.86,North,0,0.0,0.0,46,0.00,,,-99.99,VWS V12.07,2013-02-02 01:32:00,
2013-02-01 19:37:00,7.7,-8.8,31.86,North,0,0.0,0.0,46,0.00,,,-99.99,VWS V12.07,2013-02-02 01:37:00,
2013-02-01 19:42:00,7.9,-8.6,31.86,North,0,0.0,0.0,46,0.00,,,-99.99,VWS V12.07,2013-02-02 01:42:00,
2013-02-01 19:47:00,7.7,-8.8,31.86,North,0,0.0,0.0,46,0.00,,,-99.99,VWS V12.07,2013-02-02 01:47:00,
2013-02-01 19:52:00,7.7,-8.8,31.86,North,0,0.0,0.0,46,0.00,,,-99.99,VWS V12.07,2013-02-02 01:52:00,
2013-02-01 19:57:00,7.5,-8.9,31.86,North,0,0.0,0.0,46,0.00,,,-99.99,VWS V12.07,2013-02-02 01:57:00,
2013-02-01 20:07:00,7.5,-8.9,30.21,North,0,0.0,0.0,46,0.00,,,-99.99,VWS V12.07,2013-02-02 02:07:00,
2013-02-01 20:17:00,7.7,-8.8,30.21,North,0,0.0,0.0,46,0.00,,,-99.99,VWS V12.07,2013-02-02 02:17:00,
2013-02-01 20:22:00,7.7,-8.8,23.83,North,0,0.0,0.0,46,0.00,,,-99.99,VWS V12.07,2013-02-02 02:22:00,
2013-02-01 20:27:00,7.7,-8.8,23.83,North,0,0.0,0.0,46,0.00,,,-99.99,VWS V12.07,2013-02-02 02:27:00,
2013-02-01 20:32:00,7.7,-8.8,23.83,North,0,0.0,0.0,46,0.00,,,-99.99,VWS V12.07,2013-02-02 02:32:00,
2013-02-01 20:37:00,7.9,-8.6,21.94,North,0,0.0,0.0,46,0.00,,,-99.99,VWS V12.07,2013-02-02 02:37:00,
2013-02-01 20:42:00,7.9,-8.6,21.94,North,0,0.0,0.0,46,0.00,,,-99.99,VWS V12.07,2013-02-02 02:42:00,
2013-02-01 20:47:00,7.9,-8.6,21.94,North,0,0.0,0.0,46,0.00,,,-99.99,VWS V12.07,2013-02-02 02:47:00,
2013-02-01 20:52:00,7.9,-8.6,18.57,North,0,0.0,0.0,46,0.00,,,-99.99,VWS V12.07,2013-02-02 02:52:00,
2013-02-01 20:57:00,7.9,-8.6,18.57,North,0,0.0,0.0,46,0.00,,,-99.99,VWS V12.07,2013-02-02 02:57:00,
2013-02-01 21:02:00,7.9,-8.6,18.57,North,0,0.0,0.0,46,0.00,,,-99.99,VWS V12.07,2013-02-02 03:02:00,
2013-02-01 21:07:00,7.9,-8.6,18.57,North,0,0.0,0.0,46,0.00,,,-99.99,VWS V12.07,2013-02-02 03:07:00,
2013-02-01 21:12:00,7.9,-8.6,18.57,North,0,0.0,0.0,46,0.00,,,-99.99,VWS V12.07,2013-02-02 03:12:00,
2013-02-01 21:22:00,7.9,-8.6,18.57,North,0,0.0,0.0,46,0.00,,,-99.99,VWS V12.07,2013-02-02 03:22:00,
2013-02-01 21:27:00,8.1,-8.4,18.57,North,0,0.0,0.0,46,0.00,,,-99.99,VWS V12.07,2013-02-02 03:27:00,
2013-02-01 21:32:00,8.1,-8.4,18.57,North,0,0.0,0.0,46,0.00,,,-99.99,VWS V12.07,2013-02-02 03:32:00,
2013-02-01 21:37:00,8.1,-8.4,18.57,North,0,0.0,0.0,46,0.00,,,-99.99,VWS V12.07,2013-02-02 03:37:00,
2013-02-01 21:42:00,8.1,-8.4,18.57,North,0,0.0,0.0,46,0.00,,,-99.99,VWS V12.07,2013-02-02 03:42:00,
2013-02-01 21:47:00,8.2,-8.3,18.57,North,0,0.0,0.0,46,0.00,,,-99.99,VWS V12.07,2013-02-02 03:47:00,
2013-02-01 21:52:00,8.4,-8.1,18.57,North,0,0.0,0.0,46,0.00,,,-99.99,VWS V12.07,2013-02-02 03:52:00,
2013-02-01 21:57:00,8.4,-8.1,18.57,North,0,0.0,0.0,46,0.00,,,-99.99,VWS V12.07,2013-02-02 03:57:00,
2013-02-01 22:02:00,8.4,-8.1,18.57,North,0,0.0,0.0,46,0.00,,,-99.99,VWS V12.07,2013-02-02 04:02:00,
2013-02-01 22:07:00,8.6,-7.9,18.57,North,0,0.0,0.0,46,0.00,,,-99.99,VWS V12.07,2013-02-02 04:07:00,
2013-02-01 22:12:00,8.8,-7.8,18.57,North,0,0.0,0.0,46,0.00,,,-99.99,VWS V12.07,2013-02-02 04:12:00,
2013-02-01 22:17:00,8.8,-7.8,18.57,North,0,0.0,0.0,46,0.00,,,-99.99,VWS V12.07,2013-02-02 04:17:00,
2013-02-01 22:22:00,8.8,-7.8,18.57,North,0,0.0,0.0,46,0.00,,,-99.99,VWS V12.07,2013-02-02 04:22:00,
2013-02-01 22:27:00,9.1,-7.4,18.57,North,0,0.0,0.0,46,0.00,,,-99.99,VWS V12.07,2013-02-02 04:27:00,
2013-02-01 22:32:00,9.1,-7.4,18.57,North,0,0.0,0.0,46,0.00,,,-99.99,VWS V12.07,2013-02-02 04:32:00,
2013-02-01 22:37:00,9.3,-7.3,18.57,North,0,0.0,0.0,46,0.00,,,-99.99,VWS V12.07,2013-02-02 04:37:00,
2013-02-01 22:42:00,9.1,-7.4,18.57,North,0,0.0,0.0,46,0.00,,,-99.99,VWS V12.07,2013-02-02 04:42:00,
2013-02-01 22:47:00,9.1,-7.4,18.57,North,0,0.0,0.0,46,0.00,,,-99.99,VWS V12.07,2013-02-02 04:47:00,
2013-02-01 22:52:00,9.1,-7.4,18.57,North,0,0.0,0.0,46,0.00,,,-99.99,VWS V12.07,2013-02-02 04:52:00,
2013-02-01 22:57:00,9.1,-7.4,18.57,North,0,0.0,0.0,46,0.00,,,-99.99,VWS V12.07,2013-02-02 04:57:00,
2013-02-01 23:02:00,9.3,-7.3,18.57,North,0,0.0,0.0,46,0.00,,,-99.99,VWS V12.07,2013-02-02 05:02:00,
2013-02-01 23:07:00,9.3,-7.3,18.57,North,0,0.0,0.0,46,0.00,,,-99.99,VWS V12.07,2013-02-02 05:07:00,
2013-02-01 23:12:00,9.5,-7.1,18.57,North,0,0.0,0.0,46,0.00,,,-99.99,VWS V12.07,2013-02-02 05:12:00,
2013-02-01 23:17:00,9.5,-7.1,18.57,North,0,0.0,0.0,46,0.00,,,-99.99,VWS V12.07,2013-02-02 05:17:00,
2013-02-01 23:22:00,9.7,-6.9,18.57,North,0,0.0,0.0,46,0.00,,,-99.99,VWS V12.07,2013-02-02 05:22:00,
2013-02-01 23:27:00,9.7,-6.9,18.57,North,0,0.0,0.0,46,0.00,,,-99.99,VWS V12.07,2013-02-02 05:27:00,
2013-02-01 23:32:00,9.7,-6.9,18.57,North,0,0.0,0.0,46,0.00,,,-99.99,VWS V12.07,2013-02-02 05:32:00,
2013-02-01 23:37:00,9.7,-6.9,18.57,North,0,0.0,0.0,46,0.00,,,-99.99,VWS V12.07,2013-02-02 05:37:00,
2013-02-01 23:42:00,9.9,-6.8,18.57,North,0,0.0,0.0,46,0.00,,,-99.99,VWS V12.07,2013-02-02 05:42:00,
2013-02-01 23:47:00,9.9,-6.8,18.57,North,0,0.0,0.0,46,0.00,,,-99.99,VWS V12.07,2013-02-02 05:47:00,
2013-02-01 23:52:00,10.0,-6.6,18.57,North,0,0.0,0.0,46,0.00,,,-99.99,VWS V12.07,2013-02-02 05:52:00,
2013-02-01 23:57:00,10.0,-6.6,18.57,North,0,0.0,0.0,46,0.00,,,-99.99,VWS V12.07,2013-02-02 05:57:00,